createdAt,value
2023-01-30T00:04:43.136Z,19.45
2023-01-30T00:09:45.514Z,19.83
2023-01-30T00:14:47.309Z,18.98
2023-01-30T00:19:49.195Z,22.23
2023-01-30T00:24:51.008Z,20.15
2023-01-30T00:30:02.403Z,20.33
2023-01-30T00:35:04.813Z,21.35
2023-01-30T00:40:07.148Z,21.75
2023-01-30T00:45:30.558Z,20.00
2023-01-30T00:50:42.543Z,19.80
2023-01-30T00:55:45.773Z,17.60
2023-01-30T01:00:47.962Z,18.15
2023-01-30T01:05:49.850Z,17.08
2023-01-30T01:10:51.674Z,17.63
2023-01-30T01:15:53.459Z,17.33
2023-01-30T01:20:55.227Z,16.75
2023-01-30T01:26:01.023Z,15.43
2023-01-30T01:31:09.655Z,14.05
2023-01-30T01:36:16.221Z,16.27
2023-01-30T01:41:21.762Z,11.82
2023-01-30T01:46:26.840Z,14.20
2023-01-30T01:51:33.724Z,14.00
2023-01-30T01:56:37.854Z,14.05
2023-01-30T02:01:39.734Z,14.82
2023-01-30T02:06:42.693Z,14.93
2023-01-30T02:11:53.461Z,15.27
2023-01-30T02:22:28.395Z,12.77
2023-01-30T02:27:39.110Z,14.15
2023-01-30T02:33:41.187Z,12.02
2023-01-30T02:38:57.871Z,14.27
2023-01-30T02:44:10.209Z,15.20
2023-01-30T02:49:20.643Z,13.88
2023-01-30T02:54:22.433Z,10.43
2023-01-30T02:59:37.327Z,14.32
2023-01-30T03:05:25.135Z,13.90
2023-01-30T03:10:32.677Z,15.13
2023-01-30T03:15:42.445Z,14.10
2023-01-30T03:20:44.542Z,12.10
2023-01-30T03:25:47.839Z,13.13
2023-01-30T03:30:49.727Z,12.55
2023-01-30T03:35:52.282Z,13.57
2023-01-30T03:40:54.086Z,12.80
2023-01-30T03:45:55.960Z,12.35
2023-01-30T03:50:57.994Z,12.30
2023-01-30T03:55:59.754Z,11.82
2023-01-30T04:01:01.772Z,12.10
2023-01-30T04:06:03.668Z,11.23
2023-01-30T04:11:05.527Z,11.40
2023-01-30T04:16:21.083Z,11.43
2023-01-30T04:21:22.982Z,12.02
2023-01-30T04:26:24.911Z,11.57
2023-01-30T04:31:26.777Z,12.60
2023-01-30T04:36:31.234Z,12.13
2023-01-30T04:41:33.070Z,11.82
2023-01-30T04:46:34.879Z,12.60
2023-01-30T04:51:36.794Z,12.13
2023-01-30T04:56:38.942Z,11.82
2023-01-30T05:01:41.236Z,11.10
2023-01-30T05:06:43.022Z,10.43
2023-01-30T05:11:44.824Z,10.82
2023-01-30T05:16:46.626Z,9.73
2023-01-30T05:21:48.397Z,10.98
2023-01-30T05:26:50.185Z,10.00
2023-01-30T05:31:52.002Z,9.73
2023-01-30T05:36:53.864Z,9.85
2023-01-30T05:41:55.804Z,10.38
2023-01-30T05:46:58.388Z,10.75
2023-01-30T05:52:00.335Z,9.95
2023-01-30T05:57:02.179Z,9.70
2023-01-30T06:02:03.969Z,10.05
2023-01-30T06:07:05.859Z,11.05
2023-01-30T06:12:07.981Z,10.77
2023-01-30T06:17:09.813Z,10.20
2023-01-30T06:22:11.644Z,10.18
2023-01-30T06:27:14.558Z,9.80
2023-01-30T06:32:16.514Z,10.13
2023-01-30T06:37:18.342Z,10.55
2023-01-30T06:42:20.092Z,10.45
2023-01-30T06:47:21.842Z,10.18
2023-01-30T06:52:23.561Z,8.98
2023-01-30T06:57:25.330Z,9.77
2023-01-30T07:02:30.776Z,8.35
2023-01-30T07:07:33.158Z,9.40
2023-01-30T07:12:35.033Z,7.63
2023-01-30T07:17:37.100Z,8.10
2023-01-30T07:22:38.974Z,8.80
2023-01-30T07:27:42.325Z,8.30
2023-01-30T07:32:44.088Z,8.18
2023-01-30T07:37:50.024Z,7.60
2023-01-30T07:42:58.861Z,7.82
2023-01-30T07:48:00.666Z,7.53
2023-01-30T07:53:07.026Z,7.28
2023-01-30T07:58:15.548Z,5.95
2023-01-30T08:03:17.840Z,5.35
2023-01-30T08:08:20.354Z,5.55
2023-01-30T08:13:22.386Z,6.43
2023-01-30T08:18:24.144Z,5.13
2023-01-30T08:23:25.965Z,5.68
2023-01-30T08:28:28.623Z,5.60
2023-01-30T08:33:30.402Z,5.00
2023-01-30T08:38:32.150Z,5.57
2023-01-30T08:43:34.808Z,4.25
2023-01-30T08:48:49.511Z,4.68
2023-01-30T08:53:52.326Z,4.68
2023-01-30T08:58:54.234Z,3.70
2023-01-30T09:03:55.997Z,3.35
2023-01-30T09:08:59.341Z,2.88
2023-01-30T09:14:01.195Z,2.90
2023-01-30T09:19:02.989Z,3.00
2023-01-30T09:24:05.813Z,2.38
2023-01-30T09:29:07.638Z,2.78
2023-01-30T09:34:09.427Z,2.53
2023-01-30T09:39:11.205Z,3.13
2023-01-30T09:44:45.044Z,1.92
2023-01-30T09:50:11.313Z,2.65
2023-01-30T09:55:21.373Z,2.17
2023-01-30T10:00:37.644Z,2.20
2023-01-30T10:05:51.537Z,2.25
2023-01-30T10:11:09.549Z,2.08
2023-01-30T10:16:32.904Z,1.90
2023-01-30T10:21:56.105Z,2.42
2023-01-30T10:26:58.342Z,1.98
2023-01-30T10:32:31.864Z,3.33
2023-01-30T10:37:42.223Z,2.58
2023-01-30T10:43:08.774Z,1.58
2023-01-30T10:48:46.691Z,2.42
2023-01-30T10:54:13.839Z,2.22
2023-01-30T10:59:21.925Z,3.03
2023-01-30T11:04:38.811Z,2.33
2023-01-30T11:09:44.874Z,3.60
2023-01-30T11:14:52.747Z,2.83
2023-01-30T11:20:01.284Z,3.17
2023-01-30T11:25:14.882Z,2.35
2023-01-30T11:30:20.459Z,3.28
2023-01-30T11:35:31.009Z,2.72
2023-01-30T11:40:38.570Z,2.65
2023-01-30T11:45:49.792Z,2.97
2023-01-30T11:50:58.256Z,2.55
2023-01-30T11:56:08.769Z,1.98
2023-01-30T12:01:12.134Z,2.97
2023-01-30T12:06:25.827Z,2.95
2023-01-30T12:11:30.477Z,2.28
2023-01-30T12:16:59.868Z,2.33
2023-01-30T12:22:32.573Z,3.42
2023-01-30T12:27:45.114Z,2.58
2023-01-30T12:32:46.987Z,2.80
2023-01-30T12:38:18.807Z,2.45
2023-01-30T12:43:53.274Z,2.42
2023-01-30T12:49:11.898Z,2.22
2023-01-30T12:54:32.873Z,2.53
2023-01-30T12:59:57.068Z,2.25
2023-01-30T13:05:25.773Z,3.47
2023-01-30T13:10:34.756Z,2.05
2023-01-30T13:16:01.432Z,2.70
2023-01-30T13:21:25.511Z,3.50
2023-01-30T13:26:36.420Z,2.13
2023-01-30T13:31:42.751Z,2.05
2023-01-30T13:36:55.300Z,2.10
2023-01-30T13:42:00.245Z,3.53
2023-01-30T13:47:18.152Z,2.60
2023-01-30T13:52:46.499Z,2.20
2023-01-30T13:58:02.490Z,2.50
2023-01-30T14:03:04.305Z,3.55
2023-01-30T14:08:12.485Z,2.67
2023-01-30T14:13:17.582Z,2.40
2023-01-30T14:18:21.973Z,2.63
2023-01-30T14:23:34.164Z,3.05
2023-01-30T14:28:46.128Z,2.67
2023-01-30T14:33:50.412Z,3.45
2023-01-30T14:39:37.938Z,3.35
2023-01-30T14:45:03.873Z,2.70
2023-01-30T14:50:22.311Z,2.58
2023-01-30T14:55:29.501Z,5.38
2023-01-30T15:00:33.643Z,2.47
2023-01-30T15:05:42.846Z,4.07
2023-01-30T15:10:50.450Z,2.40
2023-01-30T15:16:06.044Z,4.50
2023-01-30T15:21:37.188Z,2.70
2023-01-30T15:27:05.881Z,3.53
2023-01-30T15:32:19.795Z,2.38
2023-01-30T15:37:37.610Z,3.55
2023-01-30T15:42:39.575Z,2.47
2023-01-30T15:48:09.449Z,3.80
2023-01-30T15:53:15.507Z,2.65
2023-01-30T15:58:20.543Z,2.28
2023-01-30T16:03:27.162Z,2.25
2023-01-30T16:08:31.584Z,2.55
2023-01-30T16:13:35.006Z,3.03
2023-01-30T16:18:39.487Z,2.83
2023-01-30T16:23:55.640Z,2.65
2023-01-30T16:29:13.979Z,2.28
2023-01-30T16:34:37.024Z,3.70
2023-01-30T16:39:38.974Z,3.75
2023-01-30T16:44:40.724Z,4.97
2023-01-30T16:49:47.123Z,3.17
2023-01-30T16:54:57.692Z,2.72
2023-01-30T17:00:00.069Z,2.72
2023-01-30T17:05:37.323Z,3.47
2023-01-30T17:10:42.128Z,3.55
2023-01-30T17:15:44.183Z,3.33
2023-01-30T17:20:51.191Z,2.83
2023-01-30T17:25:53.088Z,3.20
2023-01-30T17:30:55.145Z,2.65
2023-01-30T17:36:00.976Z,4.50
2023-01-30T17:41:03.964Z,2.50
2023-01-30T17:46:05.899Z,3.40
2023-01-30T17:51:07.919Z,3.20
2023-01-30T17:56:17.945Z,3.05
2023-01-30T18:01:19.880Z,1.40
2023-01-30T18:06:21.682Z,3.03
2023-01-30T18:11:23.854Z,3.10
2023-01-30T18:16:31.043Z,3.92
2023-01-30T18:21:34.603Z,2.90
2023-01-30T18:26:36.454Z,3.83
2023-01-30T18:31:40.526Z,3.63
2023-01-30T18:36:45.187Z,3.28
2023-01-30T18:41:47.152Z,2.50
2023-01-30T18:46:50.382Z,2.65
2023-01-30T18:51:52.237Z,3.22
2023-01-30T18:56:54.087Z,3.47
2023-01-30T19:01:55.935Z,3.45
2023-01-30T19:06:57.751Z,2.60
2023-01-30T19:12:18.011Z,2.25
2023-01-30T19:17:19.822Z,1.77
2023-01-30T19:22:24.879Z,3.42
2023-01-30T19:27:26.836Z,2.80
2023-01-30T19:32:28.635Z,2.63
2023-01-30T19:37:31.766Z,2.80
2023-01-30T19:42:34.101Z,3.50
2023-01-30T19:47:36.098Z,3.28
2023-01-30T19:52:38.165Z,3.40
2023-01-30T19:57:40.012Z,2.78
2023-01-30T20:02:41.997Z,3.15
2023-01-30T20:07:44.877Z,2.72
2023-01-30T20:12:46.660Z,3.15
2023-01-30T20:17:49.543Z,4.15
2023-01-30T20:22:51.349Z,3.95
2023-01-30T20:27:53.131Z,2.75
2023-01-30T20:32:55.262Z,3.13
2023-01-30T20:37:57.039Z,5.40
2023-01-30T20:42:59.068Z,2.85
2023-01-30T20:48:01.003Z,3.70
2023-01-30T20:53:04.135Z,3.75
2023-01-30T20:58:06.556Z,3.13
2023-01-30T21:03:08.354Z,3.65
2023-01-30T21:08:10.516Z,4.75
2023-01-30T21:13:14.805Z,3.60
2023-01-30T21:18:16.584Z,4.65
2023-01-30T21:23:18.355Z,5.38
2023-01-30T21:28:20.521Z,6.82
2023-01-30T21:33:22.323Z,5.93
2023-01-30T21:38:42.844Z,6.40
2023-01-30T21:43:48.404Z,6.00
2023-01-30T21:48:50.243Z,5.68
2023-01-30T21:53:55.933Z,6.60
2023-01-30T21:59:03.008Z,7.47
2023-01-30T22:04:06.769Z,6.78
2023-01-30T22:09:09.234Z,5.82
2023-01-30T22:14:14.840Z,6.45
2023-01-30T22:19:17.746Z,7.32
2023-01-30T22:24:19.658Z,5.57
2023-01-30T22:29:21.519Z,6.38
2023-01-30T22:34:23.880Z,7.10
2023-01-30T22:39:25.740Z,6.82
2023-01-30T22:44:27.628Z,6.65
2023-01-30T22:49:29.455Z,6.25
2023-01-30T22:54:31.247Z,5.07
2023-01-30T22:59:33.037Z,6.13
2023-01-30T23:04:34.809Z,6.43
2023-01-30T23:09:36.839Z,5.45
2023-01-30T23:14:39.629Z,5.63
2023-01-30T23:19:41.409Z,6.00
2023-01-30T23:24:43.196Z,5.60
2023-01-30T23:29:45.031Z,5.28
2023-01-30T23:34:47.785Z,4.88
2023-01-30T23:39:49.547Z,6.00
2023-01-30T23:44:51.331Z,5.82
2023-01-30T23:49:53.121Z,6.28
2023-01-30T23:54:54.948Z,5.85
2023-01-30T23:59:56.709Z,6.60
